This is the latest recevied weather packets stored in our database for station/object SQ8AQL-16. If no packets are shown the sender has not sent any weather packets the latest 10 day(s).
| Time | Temp. | Humidity | Pressure | Rain* | Wind** | Luminosity | Snow |
|---|---|---|---|---|---|---|---|
| 1777143325 | 15.56° C | 40% | 1009.8 hPa | - | - | - | - |
| 1777142424 | 15.56° C | 38% | 1009.9 hPa | - | - | - | - |
| 1777141523 | 16.11° C | 38% | 1009.8 hPa | - | - | - | - |
| 1777140622 | 16.67° C | 38% | 1009.8 hPa | - | - | - | - |
| 1777139721 | 17.22° C | 36% | 1009.7 hPa | - | - | 1 W/m² | - |
| 1777138819 | 17.22° C | 36% | 1009.7 hPa | - | - | 2 W/m² | - |
| 1777137918 | 17.78° C | 34% | 1009.6 hPa | - | - | 7 W/m² | - |
| 1777137017 | 18.33° C | 33% | 1009.7 hPa | - | - | 10 W/m² | - |
| 1777136116 | 18.89° C | 33% | 1009.6 hPa | - | - | 16 W/m² | - |
| 1777135216 | 19.44° C | 32% | 1009.7 hPa | - | - | 21 W/m² | - |
| 1777134315 | 21.67° C | 30% | 1009.9 hPa | - | - | 31 W/m² | - |
| 1777133413 | 22.22° C | 28% | 1009.9 hPa | - | - | 66 W/m² | - |
| 1777132513 | 23.33° C | 26% | 1010.1 hPa | - | - | 144 W/m² | - |
| 1777131612 | 25° C | 24% | 1010.2 hPa | - | - | 184 W/m² | - |
| 1777130710 | 24.44° C | 25% | 1010.3 hPa | - | - | 217 W/m² | - |
| 1777129810 | 24.44° C | 25% | 1010.4 hPa | - | - | 264 W/m² | - |
| 1777128908 | 25.56° C | 24% | 1010.4 hPa | - | - | 311 W/m² | - |
| 1777128007 | 25.56° C | 27% | 1010.6 hPa | - | - | 379 W/m² | - |
| 1777127106 | 25° C | 27% | 1010.6 hPa | - | - | 386 W/m² | - |
| 1777126205 | 25.56° C | 26% | 1010.7 hPa | - | - | 420 W/m² | - |
| 1777125304 | 25° C | 28% | 1010.9 hPa | - | - | 443 W/m² | - |
| 1777124403 | 25.56° C | 25% | 1011 hPa | - | - | 505 W/m² | - |
| 1777123502 | 24.44° C | 29% | 1011.2 hPa | - | - | 538 W/m² | - |
| 1777122601 | 24.44° C | 30% | 1011.3 hPa | - | - | 589 W/m² | - |
| 1777121700 | 23.89° C | 31% | 1011.5 hPa | - | - | 630 W/m² | - |
* Rain since midnight (hover to see other rain measurements)
** Current wind speed in m/s (hover to see current wind gust speed)